• Join FlightAware (Why Join?)
  • Login
  • US Flag 
 
07:30AM EST


 

Airport Tracker/Info


-or-


 

Live Flight TrackerFlight Track Log ✈ N55VF ✈ 26-Jul-2013 ✈ KSFY - KPOV

Flight Track Log - Related Links

Times and Time Zones

All times are in EDT time to prevent confusion due to time zone crossing. See the N55VF flight status page for this flight to view local times or setup timezone preferences in your user account.

Time Position Orientation Groundspeed Altitude Reporting Facility
EDT Latitude Longitude Course Direction KTS MPH feet Rate Location/Type
11:04AM 41.8800 -89.7470 118° Southeast 161 185 5,300  Level FlightAware
11:05AM 42.0237 -89.7170 118° Southeast  Level Estimated
11:05AM 41.8680 -89.7270 129° Southeast 157 181 5,600  Level FlightAware
11:05AM 41.8610 -89.7150 128° Southeast 157 181 5,700 540 Climbing FlightAware
11:06AM 41.8480 -89.6920 127° Southeast 160 184 6,000 600 Climbing FlightAware
11:06AM 41.8340 -89.6680 128° Southeast 158 182 6,300 540 Climbing FlightAware
11:06AM 41.8280 -89.6570 126° Southeast 159 183 6,400 480 Climbing FlightAware
11:07AM 41.8130 -89.6320 129° Southeast 159 183 6,700 480 Climbing FlightAware
11:07AM 41.8030 -89.6130 125° Southeast 159 183 6,900 180 Climbing FlightAware
11:08AM 41.7890 -89.5900 129° Southeast 171 197 6,900 120 Level FlightAware
11:08AM 41.7790 -89.5720 127° Southeast 173 199 7,000  Climbing FlightAware
11:08AM 41.7660 -89.5510 130° Southeast 184 212 6,900  Descending FlightAware
11:09AM 41.7520 -89.5260 127° Southeast 189 217 7,000  Climbing FlightAware
11:09AM 41.7330 -89.4940 129° Southeast 194 223 6,900  Descending FlightAware
11:10AM 41.7280 -89.4840 124° Southeast 195 224 7,000  Climbing FlightAware
11:10AM 41.7160 -89.4640 129° Southeast 198 228 6,900 -180 Descending FlightAware
11:10AM 41.6990 -89.4360 129° Southeast 198 228 6,900  Level FlightAware
11:11AM 41.6810 -89.4040 127° Southeast 201 231 6,900 60 Level FlightAware
11:11AM 41.6650 -89.3760 127° Southeast 200 230 7,000  Climbing FlightAware
11:12AM 41.6530 -89.3560 129° Southeast 202 232 6,900 -120 Descending FlightAware
11:12AM 41.6350 -89.3250 128° Southeast 201 231 6,900  Level FlightAware
11:13AM 41.6210 -89.3010 128° Southeast 201 231 6,900  Level FlightAware
11:13AM 41.6030 -89.2710 129° Southeast 202 232 6,900  Level FlightAware
11:14AM 41.5870 -89.2430 127° Southeast 200 230 6,900  Level FlightAware
11:14AM 41.5710 -89.2160 128° Southeast 201 231 6,900  Level FlightAware
11:15AM 41.5550 -89.1900 129° Southeast 202 232 6,900  Level FlightAware
11:15AM 41.5480 -89.1780 128° Southeast 201 231 6,900  Level FlightAware
11:15AM 41.5340 -89.1530 127° Southeast 199 229 6,900  Level FlightAware
11:16AM 41.5190 -89.1280 129° Southeast 196 226 6,900  Level FlightAware
11:16AM 41.5030 -89.1000 127° Southeast 193 222 6,900  Level FlightAware
11:17AM 41.4870 -89.0740 129° Southeast 190 219 6,900  Level FlightAware
11:17AM 41.4730 -89.0490 127° Southeast 189 217 6,900  Level FlightAware
11:18AM 41.4570 -89.0220 128° Southeast 188 216 6,900  Level FlightAware
11:18AM 41.4420 -88.9970 129° Southeast 187 215 6,900  Level FlightAware
11:18AM 41.4370 -88.9850 119° Southeast 192 221 6,900  Level FlightAware
11:19AM 41.4330 -88.9630 104° East 198 228 6,900 120 Level FlightAware
11:19AM 41.4300 -88.9320 97° East 195 224 7,000  Climbing FlightAware
11:19AM 41.4270 -88.9010 97° East 196 226 6,900 -180 Descending FlightAware
11:20AM 41.4240 -88.8850 104° East 196 226 6,900  Level FlightAware
11:20AM 41.4190 -88.8510 101° East 197 227 6,900  Level FlightAware
11:20AM 41.4170 -88.8320 98° East 196 226 6,900  Level FlightAware
11:21AM 41.4120 -88.7960 100° East 196 226 6,900  Level FlightAware
11:21AM 41.4080 -88.7660 100° East 198 228 6,900  Level FlightAware
11:22AM 41.4030 -88.7320 101° East 198 228 6,900  Level FlightAware
11:22AM 41.3990 -88.7010 100° East 198 228 6,900  Level FlightAware
11:22AM 41.3960 -88.6810 101° East 198 228 6,900  Level FlightAware
11:23AM 41.3910 -88.6480 101° East 197 227 6,900  Level FlightAware
11:23AM 41.3870 -88.6170 100° East 197 227 6,900  Level FlightAware
11:24AM 41.3840 -88.5960 101° East 196 226 6,900  Level FlightAware
11:24AM 41.3810 -88.5720 99° East 194 223 6,900  Level FlightAware
11:24AM 41.3760 -88.5380 101° East 194 223 6,900  Level FlightAware
11:25AM 41.3710 -88.5030 101° East 192 221 6,900  Level FlightAware
11:25AM 41.3670 -88.4720 100° East 192 221 6,900  Level FlightAware
11:26AM 41.3630 -88.4460 102° East 190 219 6,900  Level FlightAware
11:26AM 41.3580 -88.4100 100° East 185 213 6,900  Level FlightAware
11:27AM 41.3530 -88.3750 101° East 189 217 6,900  Level FlightAware
11:27AM 41.3490 -88.3460 100° East 190 219 6,900  Level FlightAware
11:28AM 41.3450 -88.3140 99° East 190 219 6,900  Level FlightAware
11:28AM 41.3400 -88.2790 101° East 191 220 6,900  Level FlightAware
11:29AM 41.3360 -88.2520 101° East 191 220 6,900  Level FlightAware
11:29AM 41.3320 -88.2270 102° East 190 219 6,900  Level FlightAware
11:29AM 41.3300 -88.2080 98° East 189 217 6,900  Level FlightAware
11:30AM 41.3250 -88.1760 102° East 188 216 6,900  Level FlightAware
11:30AM 41.3210 -88.1490 101° East 188 216 6,900  Level FlightAware
11:31AM 41.3170 -88.1150 99° East 187 215 6,900  Level FlightAware
11:31AM 41.3130 -88.0930 104° East 186 214 6,900  Level FlightAware
11:31AM 41.3090 -88.0610 99° East 186 214 6,900  Level FlightAware
11:32AM 41.3060 -88.0390 100° East 185 213 6,900  Level FlightAware
11:32AM 41.3010 -88.0070 102° East 186 214 6,900  Level FlightAware
11:33AM 41.2980 -87.9880 102° East 186 214 6,900  Level FlightAware
11:33AM 41.2940 -87.9560 99° East 188 216 6,900  Level FlightAware
11:33AM 41.2890 -87.9230 101° East 186 214 6,900  Level FlightAware
11:34AM 41.2840 -87.8920 102° East 187 215 6,900  Level FlightAware
11:34AM 41.2800 -87.8650 101° East 187 215 6,900  Level FlightAware
11:35AM 41.2760 -87.8330 99° East 187 215 6,900  Level FlightAware
11:35AM 41.2730 -87.8160 103° East 186 214 6,900  Level FlightAware
11:36AM 41.2690 -87.7860 100° East 185 213 6,900  Level FlightAware
11:36AM 41.2700 -87.7480 88° East 187 215 6,900  Level FlightAware
11:36AM 41.2710 -87.7200 87° East 189 217 6,900  Level FlightAware
11:37AM 41.2720 -87.6840 88° East 188 216 6,900  Level FlightAware
11:37AM 41.2720 -87.6560 90° East 187 215 6,900  Level FlightAware
11:38AM 41.2720 -87.6270 90° East 188 216 6,900  Level FlightAware
11:38AM 41.2730 -87.5990 87° East 187 215 6,900  Level FlightAware
11:38AM 41.2730 -87.5820 90° East 189 217 6,900  Level FlightAware
11:39AM 41.2740 -87.5510 88° East 190 219 6,900  Level FlightAware
11:39AM 41.2740 -87.5310 90° East 191 220 6,900  Level FlightAware
11:40AM 41.2750 -87.5050 87° East 192 221 6,900  Level FlightAware
11:40AM 41.2750 -87.4840 90° East 190 219 6,900  Level FlightAware
11:40AM 41.2760 -87.4550 87° East 192 221 6,900  Level FlightAware
11:40AM 41.2760 -87.4420 90° East 191 220 6,900  Level FlightAware
11:41AM 41.2760 -87.4110 90° East 189 217 6,900  Level FlightAware
11:41AM 41.2770 -87.3840 87° East 188 216 6,900  Level FlightAware
11:42AM 41.2770 -87.3620 90° East 187 215 6,900  Level FlightAware
11:42AM 41.2780 -87.3300 88° East 186 214 6,900  Level FlightAware
11:43AM 41.2780 -87.2960 90° East 187 215 6,900  Level FlightAware
11:43AM 41.2780 -87.2640 90° East 187 215 6,900  Level FlightAware
11:44AM 41.2790 -87.2320 88° East 188 216 6,900  Level FlightAware
11:44AM 41.2790 -87.2040 90° East 186 214 6,900  Level FlightAware
11:44AM 41.2800 -87.1660 88° East 185 213 6,900  Level FlightAware
11:45AM 41.2800 -87.1390 90° East 185 213 6,900  Level FlightAware
11:45AM 41.2810 -87.1120 87° East 185 213 6,900  Level FlightAware
11:46AM 41.2810 -87.0770 90° East 187 215 6,900  Level FlightAware
11:46AM 41.2810 -87.0470 90° East 186 214 6,900  Level FlightAware
11:47AM 41.2820 -87.0190 87° East 185 213 6,900  Level FlightAware
11:47AM 41.2820 -86.9890 90° East 185 213 6,900  Level FlightAware
11:47AM 41.2830 -86.9590 87° East 184 212 6,900  Level FlightAware
11:48AM 41.2830 -86.9290 90° East 184 212 6,900  Level FlightAware
11:48AM 41.2830 -86.9000 90° East 183 211 6,900  Level FlightAware
11:49AM 41.2830 -86.8840 90° East 184 212 6,900  Level FlightAware
11:49AM 41.2840 -86.8500 88° East 183 211 6,900  Level FlightAware
11:50AM 41.2840 -86.8170 90° East 184 212 6,900  Level FlightAware
11:50AM 41.2840 -86.7870 90° East 184 212 6,900  Level FlightAware
11:50AM 41.2850 -86.7570 87° East 184 212 6,900  Level FlightAware
11:51AM 41.2850 -86.7430 90° East 183 211 6,900  Level FlightAware
11:51AM 41.2850 -86.7060 90° East 184 212 6,900  Level FlightAware
11:52AM 41.2860 -86.6740 88° East 183 211 6,900  Level FlightAware
11:52AM 41.2860 -86.6530 90° East 183 211 6,900  Level FlightAware
11:53AM 41.2860 -86.6170 90° East 181 208 6,900  Level FlightAware
11:53AM 41.2860 -86.5870 90° East 181 208 6,900  Level FlightAware
11:54AM 41.2870 -86.5510 88° East 182 209 6,900  Level FlightAware
11:54AM 41.2870 -86.5230 90° East 184 212 6,900  Level FlightAware
11:54AM 41.2870 -86.4910 90° East 183 211 6,900  Level FlightAware
11:55AM 41.2870 -86.4610 90° East 183 211 6,900  Level FlightAware
11:55AM 41.2880 -86.4230 88° East 182 209 6,900  Level FlightAware
11:56AM 41.2880 -86.3970 90° East 179 206 6,900  Level FlightAware
11:56AM 41.2880 -86.3700 90° East 179 206 6,900  Level FlightAware
11:57AM 41.2880 -86.3500 90° East 181 208 6,900  Level FlightAware
11:57AM 41.2890 -86.3210 87° East 178 205 6,900  Level FlightAware
11:57AM 41.2890 -86.2910 90° East 179 206 6,900  Level FlightAware
11:58AM 41.2890 -86.2600 90° East 179 206 6,900  Level FlightAware
11:58AM 41.2890 -86.2310 90° East 180 207 6,900  Level FlightAware
11:59AM 41.2890 -86.1860 90° East 177 204 6,900  Level FlightAware
12:00PM 41.2890 -86.1470 90° East 178 205 6,900 60 Level FlightAware
12:00PM 41.2892 -86.1103 90° East 178 205 7,000 60 Climbing Chicago Center
12:01PM 41.2897 -86.0444 89° East 179 206 7,000  Level Chicago Center
12:02PM 41.2894 -85.9783 90° East 179 206 7,000  Level Chicago Center
12:03PM 41.2897 -85.9114 90° East 182 209 7,000  Level Chicago Center
12:04PM 41.2894 -85.8444 90° East 182 209 7,000  Level Chicago Center
12:05PM 41.2900 -85.7767 89° East 184 212 7,000  Level Chicago Center
12:06PM 41.2900 -85.6958 90° East 184 212 7,000  Level Chicago Center
12:07PM 41.2906 -85.6275 89° East 185 213 7,100 -60 Climbing Chicago Center
12:14PM 41.2900 -85.2030 89° East 181 208 6,900 -60 Descending FlightAware
12:14PM 41.2900 -85.1920 90° East 181 208 6,900  Level FlightAware
12:15PM 41.2900 -85.1490 90° East 181 208 6,900  Level FlightAware
12:15PM 41.2900 -85.1750 270° West 182 209 6,900  Level FlightAware
12:16PM 41.2900 -85.0730 90° East 184 212 6,900 120 Level FlightAware
12:17PM 41.2900 -84.9953 90° East 183 211 7,100 60 Climbing Chicago Center
12:18PM 41.2897 -84.9261 90° East 184 212 7,100  Level Chicago Center
12:19PM 41.2892 -84.8572 91° East 186 214 7,100  Level Chicago Center
12:20PM 41.2892 -84.7900 90° East 185 213 7,100  Level Chicago Center
12:21PM 41.2883 -84.7208 91° East 186 214 7,100  Level Chicago Center
12:22PM 41.2883 -84.6525 90° East 186 214 7,100  Level Chicago Center
12:23PM 41.2878 -84.5714 90° East 185 213 7,100  Level Chicago Center
12:24PM 41.2875 -84.5028 90° East 186 214 7,100 -60 Level Chicago Center
12:29PM 41.2820 -84.1410 90° East 186 214 6,900 -60 Descending FlightAware
12:29PM 41.2820 -84.1240 90° East 187 215 6,900  Level FlightAware
12:30PM 41.2820 -84.0930 90° East 187 215 6,900  Level FlightAware
12:30PM 41.2810 -84.0610 92° East 188 216 6,900  Level FlightAware
12:31PM 41.2810 -84.0440 90° East 188 216 6,900  Level FlightAware
12:31PM 41.2800 -84.0110 92° East 188 216 6,900  Level FlightAware
12:31PM 41.2800 -83.9960 90° East 188 216 6,900  Level FlightAware
12:32PM 41.2800 -83.9590 90° East 189 217 6,900  Level FlightAware
12:32PM 41.2790 -83.9200 92° East 190 219 6,900  Level FlightAware
12:35PM 41.2770 -83.7650 91° East 189 217 6,900 60 Level FlightAware
12:35PM 41.2783 -83.7164 91° East 188 216 7,100 -120 Climbing Chicago Center
12:38PM 41.2733 -83.5758 93° East  Level FlightAware Approximate
12:45PM 41.2550 -83.1035 93° East  Level FlightAware Approximate
12:46PM 41.2522 -83.0360 93° East  Level FlightAware Approximate
12:47PM 41.2500 -82.9685 90° East  Level FlightAware Approximate
12:48PM 41.2501 -82.9009 90° East  Level FlightAware Approximate
12:49PM 41.2502 -82.8334 90° East  Level FlightAware Approximate
12:50PM 41.2503 -82.7658 90° East  Level FlightAware Approximate
12:51PM 41.2502 -82.6983 90° East  Level FlightAware Approximate
12:52PM 41.2502 -82.6307 90° East  Level FlightAware Approximate
12:53PM 41.2501 -82.5632 90° East  Level FlightAware Approximate
12:53PM 41.2500 -82.4880 90° East 183 211 4,800  Level FlightAware
12:53PM 41.2490 -82.4480 92° East 183 211 4,800 -240 Level FlightAware
12:54PM 41.2480 -82.4240 93° East 189 217 4,600 -900 Descending FlightAware
12:54PM 41.2470 -82.3900 92° East 204 235 4,100 -900 Descending FlightAware
12:54PM 41.2460 -82.3400 92° East 193 222 3,800 -300 Descending FlightAware
12:55PM 41.2450 -82.3030 92° East 185 213 3,800  Level FlightAware
12:55PM 41.2440 -82.2720 92° East 179 206 3,800  Level FlightAware
12:56PM 41.2420 -82.2420 95° East 177 204 3,800  Level FlightAware
12:57PM 41.2270 -82.2030 117° Southeast 175 201 3,800 60 Level FlightAware
12:57PM 41.2190 -82.1820 117° Southeast 173 199 3,900  Climbing FlightAware
12:57PM 41.2120 -82.1640 117° Southeast 175 201 3,800 -120 Descending FlightAware
12:58PM 41.1950 -82.1210 118° Southeast 175 201 3,800  Level FlightAware
12:58PM 41.1910 -82.1100 116° Southeast 174 200 3,800  Level FlightAware
12:59PM 41.1830 -82.0880 116° Southeast 176 203 3,800  Level FlightAware
12:59PM 41.1730 -82.0610 116° Southeast 176 203 3,800  Level FlightAware
01:00PM 41.1650 -82.0420 119° Southeast 175 201 3,800  Level FlightAware
01:00PM 41.1540 -82.0140 118° Southeast 175 201 3,800  Level FlightAware
01:01PM 41.1390 -81.9750 117° Southeast 175 201 3,800  Level FlightAware
01:01PM 41.1330 -81.9580 115° Southeast 178 205 3,800 120 Level FlightAware
01:01PM 41.1220 -81.9300 118° Southeast 176 203 3,900  Climbing FlightAware
01:02PM 41.1140 -81.9090 117° Southeast 176 203 3,800 -180 Descending FlightAware
01:02PM 41.1080 -81.8930 116° Southeast 173 199 3,800 60 Level FlightAware
01:03PM 41.0960 -81.8620 117° Southeast 176 203 3,900 60 Climbing FlightAware
01:03PM 41.0900 -81.8190 100° East 179 206 3,900 -180 Level FlightAware
01:03PM 41.0930 -81.8070 72° East 185 213 3,800 -180 Descending FlightAware
01:04PM 41.0990 -81.7810 73° East 177 204 3,800  Level FlightAware
01:04PM 41.1050 -81.7510 75° East 183 211 3,800  Level FlightAware
01:05PM 41.1100 -81.7240 76° East 179 206 3,800  Level FlightAware
01:05PM 41.1170 -81.6940 73° East 176 203 3,800  Level FlightAware
01:06PM 41.1230 -81.6640 75° East 177 204 3,800 120 Level FlightAware
01:06PM 41.1280 -81.6440 72° East 175 201 3,900  Climbing FlightAware
01:06PM 41.1340 -81.6140 75° East 177 204 3,800 -120 Descending FlightAware
01:07PM 41.1400 -81.5840 75° East 185 213 3,800  Level FlightAware
01:07PM 41.1470 -81.5530 73° East 176 203 3,800 -240 Level FlightAware
01:08PM 41.1530 -81.5240 75° East 191 220 3,600 -600 Descending FlightAware
01:08PM 41.1590 -81.4960 74° East 198 228 3,300 -360 Descending FlightAware
01:09PM 41.1650 -81.4650 76° East 182 209 3,300  Level FlightAware
01:09PM 41.1710 -81.4360 75° East 166 191 3,300  Level FlightAware
01:10PM 41.1770 -81.4100 73° East 164 189 3,300  Level FlightAware
01:10PM 41.1820 -81.3860 75° East 156 180 3,300 -120 Level FlightAware
01:11PM 41.1880 -81.3560 75° East 146 168 3,200 -480 Descending FlightAware
01:11PM 41.1890 -81.3350 86° East 145 167 2,800 -660 Descending FlightAware
01:11PM 41.1890 -81.3330 90° East 145 167 2,800  Level FlightAware
01:14PM 41.2000 -81.2500 90° East  Level FlightAware Approximate
01:15PM 41.2102 -81.2516 90° East  Level Estimated
01:16PM 41.2102 -81.2516 90° East  Level Estimated
01:17PM 41.2102 -81.2516 90° East  Level Estimated
01:18PM 41.2102 -81.2516 90° East  Level Estimated
01:19PM 41.2102 -81.2516 90° East  Level Estimated
01:20PM 41.2102 -81.2516 90° East  Level Estimated
01:21PM 41.2102 -81.2516 90° East  Level Estimated
01:22PM 41.2102 -81.2516 90° East  Level Estimated
01:23PM 41.2102 -81.2516 90° East  Level Estimated
01:24PM 41.2102 -81.2516 90° East  Level Estimated
01:25PM 41.2102 -81.2516 90° East  Level Estimated